Terminal Aerodrome Forecast
Issued by NWS Tulsa, OK

Home | Current Version | Previous Version | Text Only | Print | Product List | Glossary On
Versions: 1 2 3 4 5 6 7 8 9 10 11 12 13
305
FTUS44 KTSA 221125
TAFFSM
TAF
KFSM 221125Z 2212/2312 06005KT P6SM SKC
     FM222000 15006KT P6SM VCTS SCT035CB
     FM230000 13004KT P6SM SCT250=

USA.gov is the U.S. government's official web portal to all federal, state and local government web resources and services.